Time;durP1;ratioP1;P1;durP2;ratioP2;P2;SDS_P1;SDS_P2;PMS_P1;PMS_P2;Temp;Humidity;BMP_temperature;BMP_pressure;BME280_temperature;BME280_humidity;BME280_pressure;Samples;Min_cycle;Max_cycle;Signal;HPM_P1;HPM_P2
2022/07/16 00:02:30;;;;;;;;;;;;;;;12.12;73.83;98785.78;4718778;30;19991;-80
2022/07/16 00:04:57;;;;;;;;;;;;;;;12.01;74.27;98780.56;4719091;30;19937;-82
2022/07/16 00:07:24;;;;;;;;;;;;;;;11.97;74.67;98784.84;4717882;30;19937;-83
2022/07/16 00:09:51;;;;;;;;;;;;;;;11.92;75.06;98777.50;4703600;30;19981;-81
2022/07/16 00:12:18;;;;;;;;;;;;;;;11.85;75.15;98784.97;4719186;30;19931;-82
2022/07/16 00:14:45;;;;;;;;;;;;;;;11.80;75.59;98784.94;4718787;30;20025;-82
2022/07/16 00:17:12;;;;;;;;;;;;;;;11.73;75.79;98778.97;4718896;30;20390;-83
2022/07/16 00:19:39;;;;;;;;;;;;;;;11.66;76.28;98792.69;4718541;30;19930;-81
2022/07/16 00:22:06;;;;;;;;;;;;;;;11.59;76.73;98798.28;4718573;30;20029;-83
2022/07/16 00:24:32;;;;;;;;;;;;;;;11.57;77.38;98792.34;4718480;30;20260;-81
2022/07/16 00:26:59;;;;;;;;;;;;;;;11.54;77.45;98795.53;4717623;30;19930;-82
2022/07/16 00:29:43;;;;;;;;;;;;;;;11.52;77.62;98788.75;4708335;30;19931;-82
2022/07/16 00:32:10;;;;;;;;;;;;;;;11.51;77.79;98785.25;4717545;30;20399;-82
2022/07/16 00:34:37;;;;;;;;;;;;;;;11.52;77.53;98792.28;4718449;30;19938;-83
2022/07/16 00:37:20;;;;;;;;;;;;;;;11.51;77.72;98790.66;4718274;30;20314;-81
2022/07/16 00:39:47;;;;;;;;;;;;;;;11.48;77.66;98797.38;4718385;30;20485;-81
2022/07/16 00:42:14;;;;;;;;;;;;;;;11.49;77.75;98790.91;4718446;30;20017;-81
2022/07/16 00:44:41;;;;;;;;;;;;;;;11.46;77.79;98793.28;4718595;30;20025;-81
2022/07/16 00:47:08;;;;;;;;;;;;;;;11.42;77.86;98798.41;4718442;30;19938;-82
2022/07/16 00:49:35;;;;;;;;;;;;;;;11.42;77.81;98803.81;4718831;30;19942;-83
2022/07/16 00:52:02;;;;;;;;;;;;;;;11.37;78.16;98795.66;4717274;30;19931;-82
2022/07/16 00:54:29;;;;;;;;;;;;;;;11.34;78.27;98801.53;4716766;30;19937;-82
2022/07/16 00:56:56;;;;;;;;;;;;;;;11.38;78.37;98801.88;4717119;30;19981;-82
2022/07/16 00:59:24;;;;;;;;;;;;;;;11.38;78.52;98801.88;4718344;30;19931;-82
2022/07/16 01:01:52;;;;;;;;;;;;;;;11.40;78.59;98805.94;4717807;30;20452;-81
2022/07/16 01:04:19;;;;;;;;;;;;;;;11.39;78.53;98811.59;4718160;30;20079;-83
2022/07/16 01:06:46;;;;;;;;;;;;;;;11.41;78.56;98812.16;4717397;30;19954;-83
2022/07/16 01:09:14;;;;;;;;;;;;;;;11.34;78.86;98806.94;4718805;30;19935;-82
2022/07/16 01:11:40;;;;;;;;;;;;;;;11.33;78.97;98810.72;4716709;30;20033;-83
2022/07/16 01:14:07;;;;;;;;;;;;;;;11.33;79.02;98808.03;4718192;30;20369;-81
2022/07/16 01:16:34;;;;;;;;;;;;;;;11.27;79.21;98807.16;4717916;30;19957;-82
2022/07/16 01:19:02;;;;;;;;;;;;;;;11.26;79.38;98802.00;4716992;30;19935;-83
2022/07/16 01:21:29;;;;;;;;;;;;;;;11.33;79.37;98812.63;4716259;30;19931;-82
2022/07/16 01:23:56;;;;;;;;;;;;;;;11.29;79.36;98815.00;4718088;30;20026;-83
2022/07/16 01:26:23;;;;;;;;;;;;;;;11.27;79.72;98811.75;4717860;30;19934;-82
2022/07/16 01:28:50;;;;;;;;;;;;;;;11.23;79.56;98818.72;4717700;30;19931;-82
2022/07/16 01:31:17;;;;;;;;;;;;;;;11.19;79.77;98812.19;4716293;30;19982;-82
2022/07/16 01:33:43;;;;;;;;;;;;;;;11.15;79.99;98817.28;4717318;30;20081;-82
2022/07/16 01:36:13;;;;;;;;;;;;;;;11.11;80.05;98818.03;4717565;30;19963;-82
2022/07/16 01:38:45;;;;;;;;;;;;;;;11.08;80.63;98819.38;4717343;30;19930;-82
2022/07/16 01:41:12;;;;;;;;;;;;;;;11.07;80.56;98823.16;4717673;30;19931;-84
2022/07/16 01:43:39;;;;;;;;;;;;;;;11.05;80.63;98817.97;4716232;30;19931;-82
2022/07/16 01:46:06;;;;;;;;;;;;;;;11.09;80.79;98823.72;4717184;30;19931;-81
2022/07/16 01:48:33;;;;;;;;;;;;;;;11.14;80.72;98828.34;4700092;30;20038;-84
2022/07/16 01:51:00;;;;;;;;;;;;;;;11.13;80.59;98824.81;4716896;30;19931;-84
2022/07/16 01:53:28;;;;;;;;;;;;;;;11.15;80.81;98830.78;4716990;30;19930;-84
2022/07/16 01:55:55;;;;;;;;;;;;;;;11.18;80.63;98827.59;4717398;30;19934;-83
2022/07/16 01:58:22;;;;;;;;;;;;;;;11.17;80.58;98823.25;4716577;30;19981;-83
2022/07/16 02:00:49;;;;;;;;;;;;;;;11.19;80.58;98826.53;4715333;30;19938;-82
2022/07/16 02:03:16;;;;;;;;;;;;;;;11.19;80.73;98826.53;4713756;30;19973;-82
2022/07/16 02:05:44;;;;;;;;;;;;;;;11.22;80.71;98831.44;4716701;30;19930;-82
2022/07/16 02:08:11;;;;;;;;;;;;;;;11.29;80.58;98833.91;4717008;30;20038;-84
2022/07/16 02:10:38;;;;;;;;;;;;;;;11.33;80.31;98828.84;4716326;30;19981;-84
2022/07/16 02:13:08;;;;;;;;;;;;;;;11.36;80.11;98833.72;4716833;30;20093;-82
2022/07/16 02:16:01;;;;;;;;;;;;;;;11.41;79.79;98840.00;4679564;30;19932;-84
2022/07/16 02:18:27;;;;;;;;;;;;;;;11.44;79.83;98833.25;4679664;30;20399;-83
2022/07/16 02:21:12;;;;;;;;;;;;;;;11.48;79.55;98829.81;4663064;30;19954;-82
2022/07/16 02:23:39;;;;;;;;;;;;;;;11.49;79.30;98836.84;4648593;30;19938;-83
2022/07/16 02:26:06;;;;;;;;;;;;;;;11.48;79.35;98829.81;4648711;30;19938;-83
2022/07/16 02:28:33;;;;;;;;;;;;;;;11.54;79.06;98844.19;4662780;30;19932;-82
2022/07/16 02:31:00;;;;;;;;;;;;;;;11.57;78.92;98837.44;4662623;30;19966;-84
2022/07/16 02:33:27;;;;;;;;;;;;;;;11.62;78.63;98843.75;4662115;30;20510;-83
2022/07/16 02:35:54;;;;;;;;;;;;;;;11.65;78.71;98842.41;4648627;30;20415;-83
2022/07/16 02:38:21;;;;;;;;;;;;;;;11.69;78.50;98843.53;4662567;30;20026;-82
2022/07/16 02:40:48;;;;;;;;;;;;;;;11.70;78.67;98848.69;4662213;30;19970;-83
2022/07/16 02:43:15;;;;;;;;;;;;;;;11.75;78.50;98836.25;4662499;30;19935;-83
2022/07/16 02:45:42;;;;;;;;;;;;;;;11.77;78.26;98839.53;4662279;30;19979;-83
2022/07/16 02:48:23;;;;;;;;;;;;;;;11.81;78.33;98848.78;4660019;30;19932;-82
2022/07/16 02:50:51;;;;;;;;;;;;;;;11.87;78.17;98847.78;4668564;30;19932;-83
2022/07/16 02:53:18;;;;;;;;;;;;;;;11.94;77.33;98848.38;4715977;30;19931;-83
2022/07/16 02:55:45;;;;;;;;;;;;;;;11.99;77.32;98855.72;4714525;30;19946;-83
2022/07/16 02:58:12;;;;;;;;;;;;;;;12.05;77.08;98855.53;4715980;30;19937;-83
2022/07/16 03:00:39;;;;;;;;;;;;;;;12.08;77.01;98849.59;4714574;30;19937;-83
2022/07/16 03:03:06;;;;;;;;;;;;;;;12.13;77.13;98844.22;4715947;30;19981;-81
2022/07/16 03:05:33;;;;;;;;;;;;;;;12.18;77.02;98854.28;4716149;30;20009;-84
2022/07/16 03:08:00;;;;;;;;;;;;;;;12.19;76.83;98860.50;4716260;30;19931;-83
2022/07/16 03:10:27;;;;;;;;;;;;;;;12.21;76.85;98859.16;4714258;30;19931;-84
2022/07/16 03:12:54;;;;;;;;;;;;;;;12.26;76.78;98861.91;4716082;30;19939;-84
2022/07/16 03:15:21;;;;;;;;;;;;;;;12.30;76.69;98859.50;4715889;30;20049;-82
2022/07/16 03:17:48;;;;;;;;;;;;;;;12.37;76.60;98873.63;4715110;30;19930;-80
2022/07/16 03:20:15;;;;;;;;;;;;;;;12.44;76.29;98868.81;4715116;30;19941;-83
2022/07/16 03:22:43;;;;;;;;;;;;;;;12.49;75.86;98873.44;4715870;30;20003;-83
2022/07/16 03:25:10;;;;;;;;;;;;;;;12.51;75.74;98874.81;4714750;30;19988;-82
2022/07/16 03:27:37;;;;;;;;;;;;;;;12.58;75.56;98880.81;4715864;30;20385;-82
2022/07/16 03:30:04;;;;;;;;;;;;;;;12.60;75.19;98880.53;4716016;30;20021;-83
2022/07/16 03:32:31;;;;;;;;;;;;;;;12.64;75.04;98883.56;4715767;30;19931;-82
2022/07/16 03:34:58;;;;;;;;;;;;;;;12.68;74.65;98885.47;4715725;30;20399;-82
2022/07/16 03:37:25;;;;;;;;;;;;;;;12.77;74.27;98883.09;4714838;30;19934;-82
2022/07/16 03:39:52;;;;;;;;;;;;;;;12.84;73.87;98883.69;4716073;30;19931;-83
2022/07/16 03:42:28;;;;;;;;;;;;;;;12.95;73.77;98888.06;4713654;30;20029;-83
2022/07/16 03:44:55;;;;;;;;;;;;;;;13.04;73.56;98887.56;4716247;30;20001;-82
2022/07/16 03:47:22;;;;;;;;;;;;;;;13.07;73.16;98885.16;4714920;30;19938;-82
2022/07/16 03:49:49;;;;;;;;;;;;;;;13.14;72.90;98891.16;4715757;30;20403;-81
2022/07/16 03:52:16;;;;;;;;;;;;;;;13.19;72.86;98891.19;4715844;30;19930;-82
2022/07/16 03:54:43;;;;;;;;;;;;;;;13.28;72.62;98890.69;4715444;30;19947;-83
2022/07/16 03:57:09;;;;;;;;;;;;;;;13.39;72.33;98892.34;4715754;30;19992;-83
2022/07/16 03:59:37;;;;;;;;;;;;;;;13.51;72.26;98898.38;4720258;30;19938;-82
2022/07/16 04:02:04;;;;;;;;;;;;;;;13.58;71.86;98896.22;4721627;30;20056;-83
2022/07/16 04:04:31;;;;;;;;;;;;;;;13.66;71.46;98897.59;4723367;30;19931;-82
2022/07/16 04:06:58;;;;;;;;;;;;;;;13.76;71.08;98897.63;4719503;30;19953;-83
2022/07/16 04:09:25;;;;;;;;;;;;;;;13.85;70.91;98893.31;4715794;30;20315;-82
2022/07/16 04:11:53;;;;;;;;;;;;;;;13.91;70.54;98893.31;4715827;30;20382;-81
2022/07/16 04:14:20;;;;;;;;;;;;;;;14.03;70.75;98902.03;4715905;30;19938;-83
2022/07/16 04:16:47;;;;;;;;;;;;;;;14.18;70.86;98898.47;4712829;30;20340;-82
2022/07/16 04:19:17;;;;;;;;;;;;;;;14.33;70.54;98895.81;4695544;30;19934;-82
2022/07/16 04:21:44;;;;;;;;;;;;;;;14.40;69.85;98901.75;4714946;30;20403;-82
2022/07/16 04:24:11;;;;;;;;;;;;;;;14.43;69.32;98894.97;4718822;30;19934;-82
2022/07/16 04:26:38;;;;;;;;;;;;;;;14.54;68.91;98901.25;4718633;30;19930;-82
2022/07/16 04:29:04;;;;;;;;;;;;;;;14.65;68.72;98900.94;4718674;30;19951;-82
2022/07/16 04:31:31;;;;;;;;;;;;;;;14.77;68.08;98897.16;4718393;30;19931;-82
2022/07/16 04:33:58;;;;;;;;;;;;;;;14.81;67.71;98901.75;4718578;30;19974;-82
2022/07/16 04:36:25;;;;;;;;;;;;;;;14.86;67.48;98900.91;4718548;30;19935;-82
2022/07/16 04:38:52;;;;;;;;;;;;;;;14.91;66.89;98911.75;4718314;30;19974;-82
2022/07/16 04:41:19;;;;;;;;;;;;;;;14.97;66.63;98913.41;4718338;30;20028;-81
2022/07/16 04:43:46;;;;;;;;;;;;;;;15.04;66.87;98903.06;4718322;30;19931;-82
2022/07/16 04:46:13;;;;;;;;;;;;;;;15.20;67.07;98916.59;4717749;30;19930;-82
2022/07/16 04:48:40;;;;;;;;;;;;;;;15.32;66.81;98907.03;4702323;30;20392;-82
2022/07/16 04:51:07;;;;;;;;;;;;;;;15.43;66.70;98905.09;4716895;30;19930;-83
2022/07/16 04:53:34;;;;;;;;;;;;;;;15.52;66.35;98908.88;4718091;30;20018;-82
2022/07/16 04:56:01;;;;;;;;;;;;;;;15.63;65.83;98919.69;4711894;30;19951;-81
2022/07/16 04:58:28;;;;;;;;;;;;;;;15.69;65.57;98913.94;4708264;30;19966;-80
2022/07/16 05:00:55;;;;;;;;;;;;;;;15.75;65.20;98912.03;4700772;30;19974;-80
2022/07/16 05:03:22;;;;;;;;;;;;;;;15.85;65.04;98905.72;4699783;30;19931;-82
2022/07/16 05:05:52;;;;;;;;;;;;;;;15.93;64.79;98914.09;4709017;30;19930;-82
2022/07/16 05:08:19;;;;;;;;;;;;;;;15.96;64.18;98918.16;4706396;30;19939;-83
2022/07/16 05:11:23;;;;;;;;;;;;;;;16.00;63.74;98920.06;4687887;30;19931;-84
2022/07/16 05:13:51;;;;;;;;;;;;;;;16.07;63.63;98918.91;4677399;30;20392;-85
2022/07/16 05:16:18;;;;;;;;;;;;;;;16.10;63.08;98918.34;4663679;30;19968;-85
2022/07/16 05:18:46;;;;;;;;;;;;;;;16.11;63.64;98922.72;4672791;30;20045;-84
2022/07/16 05:21:13;;;;;;;;;;;;;;;16.22;63.65;98919.59;4689408;30;19989;-85
2022/07/16 05:23:47;;;;;;;;;;;;;;;16.38;62.92;98925.78;4689179;30;20072;-85
2022/07/16 05:26:14;;;;;;;;;;;;;;;16.41;61.96;98935.28;4680426;30;19959;-84
2022/07/16 05:28:41;;;;;;;;;;;;;;;16.39;62.44;98942.91;4693845;30;19977;-84
2022/07/16 05:31:07;;;;;;;;;;;;;;;16.40;61.97;98939.91;4693544;30;19956;-85
2022/07/16 05:33:34;;;;;;;;;;;;;;;16.41;61.69;98938.81;4693839;30;19930;-83
2022/07/16 05:36:04;;;;;;;;;;;;;;;16.43;61.63;98943.97;4694799;30;19931;-88
2022/07/16 05:38:31;;;;;;;;;;;;;;;16.45;61.80;98939.84;4692007;30;19931;-83
2022/07/16 05:40:59;;;;;;;;;;;;;;;16.49;61.39;98940.13;4688878;30;20210;-84
2022/07/16 05:43:26;;;;;;;;;;;;;;;16.56;61.42;98937.03;4691668;30;20429;-86
2022/07/16 05:46:07;;;;;;;;;;;;;;;16.68;61.47;98946.50;4693532;30;19935;-84
2022/07/16 05:48:34;;;;;;;;;;;;;;;16.89;61.12;98936.25;4694832;30;20037;-82
2022/07/16 05:51:06;;;;;;;;;;;;;;;17.11;60.73;98940.38;4697045;30;20616;-86
2022/07/16 05:53:36;;;;;;;;;;;;;;;17.27;60.25;98941.84;4697093;30;20049;-88
2022/07/16 05:56:03;;;;;;;;;;;;;;;17.27;59.35;98939.13;4680506;30;20022;-84
2022/07/16 05:58:30;;;;;;;;;;;;;;;17.22;59.63;98943.81;4688259;30;19931;-84
2022/07/16 06:00:57;;;;;;;;;;;;;;;17.27;59.94;98941.03;4697426;30;20004;-83
2022/07/16 06:03:38;;;;;;;;;;;;;;;17.41;59.71;98941.13;4670765;30;19931;-83
2022/07/16 06:06:05;;;;;;;;;;;;;;;17.37;58.20;98951.00;4696089;30;19931;-86
2022/07/16 06:08:32;;;;;;;;;;;;;;;17.32;58.02;98946.44;4695654;30;20402;-85
2022/07/16 06:10:59;;;;;;;;;;;;;;;17.31;58.26;98945.59;4696911;30;20037;-84
2022/07/16 06:13:26;;;;;;;;;;;;;;;17.43;58.12;98950.66;4697369;30;20357;-84
2022/07/16 06:16:11;;;;;;;;;;;;;;;17.48;57.48;98938.88;4717316;30;19930;-89
2022/07/16 06:18:38;;;;;;;;;;;;;;;17.51;57.36;98936.38;4716849;30;19931;-88
2022/07/16 06:21:05;;;;;;;;;;;;;;;17.65;57.46;98947.41;4717094;30;19975;-89
2022/07/16 06:23:35;;;;;;;;;;;;;;;17.85;57.71;98945.50;4700375;30;19930;-85
2022/07/16 06:26:05;;;;;;;;;;;;;;;18.04;57.13;98954.53;4711565;30;19935;-84
2022/07/16 06:28:32;;;;;;;;;;;;;;;18.12;55.55;98945.69;4711154;30;19931;-85
2022/07/16 06:30:59;;;;;;;;;;;;;;;18.25;55.33;98949.59;4708276;30;19931;-87
2022/07/16 06:33:26;;;;;;;;;;;;;;;18.36;54.53;98944.78;4710534;30;19931;-86
2022/07/16 06:35:53;;;;;;;;;;;;;;;18.24;54.70;98947.16;4715338;30;19931;-86
2022/07/16 06:38:20;;;;;;;;;;;;;;;18.28;54.53;98949.00;4714955;30;19958;-85
2022/07/16 06:40:47;;;;;;;;;;;;;;;18.39;54.74;98945.00;4716284;30;19942;-88
2022/07/16 06:43:14;;;;;;;;;;;;;;;18.63;54.27;98952.25;4715006;30;19992;-88
2022/07/16 06:45:42;;;;;;;;;;;;;;;18.69;53.14;98942.06;4716312;30;19931;-89
2022/07/16 06:48:09;;;;;;;;;;;;;;;18.51;52.45;98943.72;4714514;30;19992;-86
2022/07/16 06:50:37;;;;;;;;;;;;;;;18.55;53.15;98940.09;4716439;30;19951;-87
2022/07/16 06:53:05;;;;;;;;;;;;;;;18.64;51.66;98937.50;4716594;30;19930;-88
2022/07/16 06:55:32;;;;;;;;;;;;;;;18.81;51.89;98939.69;4709599;30;19931;-86
2022/07/16 06:58:05;;;;;;;;;;;;;;;18.93;50.63;98937.28;4704276;30;19934;-86
2022/07/16 07:00:32;;;;;;;;;;;;;;;18.85;52.07;98951.66;4713673;30;19930;-87
2022/07/16 07:02:59;;;;;;;;;;;;;;;18.89;51.68;98947.22;4718632;30;19937;-90
2022/07/16 07:05:26;;;;;;;;;;;;;;;18.88;51.14;98944.78;4714909;30;20005;-84
2022/07/16 07:07:53;;;;;;;;;;;;;;;19.05;51.38;98945.81;4715743;30;19970;-88
2022/07/16 07:10:49;;;;;;;;;;;;;;;19.25;50.30;98949.28;4667082;30;20476;-86
2022/07/16 07:13:16;;;;;;;;;;;;;;;19.39;49.67;98950.09;4677576;30;19981;-86
2022/07/16 07:15:43;;;;;;;;;;;;;;;19.47;49.23;98946.66;4662420;30;20395;-91
2022/07/16 07:18:10;;;;;;;;;;;;;;;19.28;48.49;98967.81;4679489;30;19935;-88
2022/07/16 07:20:37;;;;;;;;;;;;;;;19.17;49.22;98950.81;4670213;30;19988;-87
2022/07/16 07:23:04;;;;;;;;;;;;;;;19.05;49.11;98945.00;4662023;30;19944;-84
2022/07/16 07:25:34;;;;;;;;;;;;;;;19.19;48.80;98954.06;4661886;30;20027;-86
2022/07/16 07:28:08;;;;;;;;;;;;;;;19.41;48.43;98961.53;4662086;30;19931;-86
2022/07/16 07:30:35;;;;;;;;;;;;;;;19.72;47.65;98958.22;4647928;30;19931;-83
2022/07/16 07:33:02;;;;;;;;;;;;;;;19.77;47.14;98954.56;4647415;30;20364;-85
2022/07/16 07:35:29;;;;;;;;;;;;;;;19.89;46.69;98957.59;4647771;30;19959;-86
2022/07/16 07:37:58;;;;;;;;;;;;;;;19.97;47.13;98953.31;4633411;30;19936;-85
2022/07/16 07:40:25;;;;;;;;;;;;;;;20.28;46.06;98950.69;4697809;30;19969;-84
2022/07/16 07:42:52;;;;;;;;;;;;;;;20.40;45.02;98955.63;4698041;30;20456;-83
2022/07/16 07:45:20;;;;;;;;;;;;;;;20.25;45.00;98952.09;4698336;30;20399;-85
2022/07/16 07:47:47;;;;;;;;;;;;;;;20.29;45.78;98955.88;4698278;30;20037;-84
2022/07/16 07:50:14;;;;;;;;;;;;;;;20.41;44.69;98960.81;4697150;30;20319;-85
2022/07/16 07:52:41;;;;;;;;;;;;;;;20.59;43.73;98955.47;4699090;30;19989;-86
2022/07/16 07:55:08;;;;;;;;;;;;;;;21.04;43.08;98953.50;4714197;30;19938;-83
2022/07/16 07:57:36;;;;;;;;;;;;;;;20.94;42.70;98959.22;4714917;30;20090;-83
2022/07/16 08:00:04;;;;;;;;;;;;;;;20.83;43.92;98958.69;4388599;30;9999720;-83
2022/07/16 08:02:41;;;;;;;;;;;;;;;20.78;44.34;98950.59;4714146;30;19941;-84
2022/07/16 08:05:09;;;;;;;;;;;;;;;21.30;43.41;98961.03;4715553;30;19939;-84
2022/07/16 08:07:36;;;;;;;;;;;;;;;21.76;42.47;98957.81;4715406;30;19970;-84
2022/07/16 08:10:03;;;;;;;;;;;;;;;21.56;42.31;98950.97;4715325;30;19974;-84
2022/07/16 08:12:30;;;;;;;;;;;;;;;21.17;43.22;98960.81;4715666;30;19938;-83
2022/07/16 08:14:57;;;;;;;;;;;;;;;21.14;42.27;98968.84;4716126;30;19981;-84
2022/07/16 08:17:24;;;;;;;;;;;;;;;21.49;43.04;98958.88;4715818;30;19938;-85
2022/07/16 08:19:51;;;;;;;;;;;;;;;21.54;42.11;98957.91;4718278;30;19934;-83
2022/07/16 08:22:18;;;;;;;;;;;;;;;21.96;41.61;98956.41;4716886;30;20025;-85
2022/07/16 08:27:31;;;;;;;;;;;;;;;21.76;41.47;98963.31;4715127;30;19941;-84
2022/07/16 08:29:58;;;;;;;;;;;;;;;21.97;42.37;98974.50;4713576;30;20042;-84
2022/07/16 08:32:25;;;;;;;;;;;;;;;22.13;41.27;98963.88;4715790;30;19966;-83
2022/07/16 08:34:52;;;;;;;;;;;;;;;21.28;41.75;98953.13;4714390;30;19974;-81
2022/07/16 08:37:35;;;;;;;;;;;;;;;21.19;41.82;98976.94;4742890;30;19937;-84
2022/07/16 08:40:04;;;;;;;;;;;;;;;21.59;40.47;98960.53;4714852;30;19933;-83
2022/07/16 08:42:34;;;;;;;;;;;;;;;21.88;39.94;98965.44;4714803;30;19954;-84
2022/07/16 08:45:02;;;;;;;;;;;;;;;22.05;39.39;98975.63;4714995;30;19997;-83
2022/07/16 08:47:30;;;;;;;;;;;;;;;21.27;39.83;98967.13;4727946;30;19937;-83
2022/07/16 08:50:01;;;;;;;;;;;;;;;21.64;40.58;98963.13;4713634;30;19973;-83
2022/07/16 08:52:29;;;;;;;;;;;;;;;22.41;39.33;98966.34;4713802;30;19931;-84
2022/07/16 08:54:56;;;;;;;;;;;;;;;22.92;37.92;98970.16;4713709;30;19936;-83
2022/07/16 08:57:42;;;;;;;;;;;;;;;23.64;36.48;98951.13;4711415;30;19930;-84
2022/07/16 09:00:13;;;;;;;;;;;;;;;24.02;35.58;98953.81;4701358;30;19934;-87
2022/07/16 09:02:46;;;;;;;;;;;;;;;23.59;36.41;98968.63;4714652;30;19942;-84
2022/07/16 09:05:16;;;;;;;;;;;;;;;22.89;37.98;98954.31;4718006;30;19934;-82
2022/07/16 09:07:46;;;;;;;;;;;;;;;22.36;38.88;98981.06;4711144;30;19962;-85
2022/07/16 09:10:13;;;;;;;;;;;;;;;21.79;40.06;98961.88;4712565;30;19931;-87
2022/07/16 09:12:47;;;;;;;;;;;;;;;21.49;41.81;98971.78;4712845;30;19982;-83
2022/07/16 09:15:33;;;;;;;;;;;;;;;21.55;41.45;98960.34;4710063;30;19984;-84
2022/07/16 09:18:06;;;;;;;;;;;;;;;21.04;42.67;98967.22;4713650;30;20036;-84
2022/07/16 09:20:33;;;;;;;;;;;;;;;20.53;43.54;98960.22;4715998;30;19937;-83
2022/07/16 09:23:02;;;;;;;;;;;;;;;20.50;42.34;98960.84;4715212;30;19930;-85
2022/07/16 09:25:34;;;;;;;;;;;;;;;21.41;41.09;98970.63;4717884;30;19931;-90
2022/07/16 09:28:02;;;;;;;;;;;;;;;22.92;37.77;98962.69;4714889;30;19931;-86
2022/07/16 09:30:29;;;;;;;;;;;;;;;22.71;37.73;98953.50;4721676;30;19966;-87
2022/07/16 09:32:56;;;;;;;;;;;;;;;23.74;36.50;98976.34;4718682;30;19980;-85
2022/07/16 09:35:23;;;;;;;;;;;;;;;24.01;36.67;98974.25;4715629;30;19931;-85
2022/07/16 09:37:54;;;;;;;;;;;;;;;24.26;36.12;98966.94;4718372;30;19930;-88
2022/07/16 09:40:35;;;;;;;;;;;;;;;25.11;34.96;98973.16;4716369;30;19934;-86
2022/07/16 09:43:04;;;;;;;;;;;;;;;25.94;33.94;98963.69;4700946;30;19980;-85
2022/07/16 09:45:30;;;;;;;;;;;;;;;25.78;32.89;98968.28;4713476;30;19930;-83
2022/07/16 09:47:57;;;;;;;;;;;;;;;24.39;34.99;98965.06;4713650;30;19938;-83
2022/07/16 09:50:34;;;;;;;;;;;;;;;23.34;36.47;98959.34;4712737;30;19962;-85
2022/07/16 09:53:23;;;;;;;;;;;;;;;22.57;37.77;98969.41;4711923;30;19931;-85
2022/07/16 09:56:07;;;;;;;;;;;;;;;23.43;36.56;98956.56;4715189;30;19971;-83
2022/07/16 09:58:34;;;;;;;;;;;;;;;23.04;37.85;98967.56;4695841;30;19930;-83
2022/07/16 10:01:02;;;;;;;;;;;;;;;23.26;37.13;98963.75;4715689;30;19930;-83
2022/07/16 10:03:34;;;;;;;;;;;;;;;24.35;35.29;98955.84;4716311;30;19950;-82
2022/07/16 10:06:19;;;;;;;;;;;;;;;25.13;33.96;98960.63;4715432;30;19931;-84
2022/07/16 10:08:46;;;;;;;;;;;;;;;25.04;34.29;98963.50;4708003;30;19930;-81
2022/07/16 10:11:13;;;;;;;;;;;;;;;25.07;33.52;98957.28;4708439;30;20563;-83
2022/07/16 10:13:44;;;;;;;;;;;;;;;23.42;36.19;98969.53;4704647;30;20259;-82
2022/07/16 10:16:12;;;;;;;;;;;;;;;22.72;36.94;98971.66;4709706;30;19930;-83
2022/07/16 10:18:46;;;;;;;;;;;;;;;22.05;38.62;98975.63;4715287;30;19935;-81
2022/07/16 10:21:14;;;;;;;;;;;;;;;21.73;39.41;98974.13;4716073;30;19957;-81
2022/07/16 10:24:19;;;;;;;;;;;;;;;21.89;39.78;98980.78;4716662;30;19939;-83
2022/07/16 10:26:46;;;;;;;;;;;;;;;22.05;39.62;98981.13;4715049;30;20021;-83
2022/07/16 10:29:12;;;;;;;;;;;;;;;22.90;38.29;98984.22;4699456;30;19931;-83
2022/07/16 10:34:34;;;;;;;;;;;;;;;22.10;39.14;98982.94;4716523;30;19940;-83
2022/07/16 10:37:02;;;;;;;;;;;;;;;22.96;38.08;98984.06;4715207;30;19981;-85
2022/07/16 10:39:32;;;;;;;;;;;;;;;23.91;36.03;98978.22;4716381;30;20309;-85
2022/07/16 10:42:00;;;;;;;;;;;;;;;24.64;34.88;98977.84;4717152;30;20339;-84
2022/07/16 10:44:47;;;;;;;;;;;;;;;24.56;34.67;98980.66;4714898;30;19946;-83
2022/07/16 10:47:15;;;;;;;;;;;;;;;23.15;36.37;98974.31;4716360;30;20037;-83
2022/07/16 10:49:42;;;;;;;;;;;;;;;22.81;37.64;98982.63;4715674;30;19940;-84
2022/07/16 10:52:18;;;;;;;;;;;;;;;22.72;37.75;98977.16;4715415;30;20411;-83
2022/07/16 10:54:49;;;;;;;;;;;;;;;22.21;38.57;98990.56;4701507;30;19931;-84
2022/07/16 10:57:16;;;;;;;;;;;;;;;21.85;39.15;98988.03;4716278;30;19931;-84
2022/07/16 10:59:46;;;;;;;;;;;;;;;21.68;40.01;98988.03;4716190;30;20361;-84
2022/07/16 11:02:15;;;;;;;;;;;;;;;21.63;40.54;98994.47;4715984;30;20480;-84
2022/07/16 11:04:43;;;;;;;;;;;;;;;21.62;39.79;98987.34;4715394;30;19966;-83
2022/07/16 11:07:12;;;;;;;;;;;;;;;21.53;40.09;98992.00;4716099;30;19981;-83
2022/07/16 11:09:44;;;;;;;;;;;;;;;21.68;40.15;99001.75;4715709;30;19937;-83
2022/07/16 11:12:11;;;;;;;;;;;;;;;21.60;40.96;98997.84;4716225;30;19988;-82
2022/07/16 11:14:38;;;;;;;;;;;;;;;23.81;38.00;99002.59;4715884;30;19942;-83
2022/07/16 11:17:05;;;;;;;;;;;;;;;25.08;34.33;99003.06;4714487;30;20382;-83
2022/07/16 11:19:39;;;;;;;;;;;;;;;25.11;34.03;98992.47;4713382;30;19931;-83
2022/07/16 11:22:10;;;;;;;;;;;;;;;24.91;34.27;98997.72;4714439;30;19930;-81
2022/07/16 11:24:43;;;;;;;;;;;;;;;25.32;33.57;99007.06;4715755;30;20029;-84
2022/07/16 11:27:10;;;;;;;;;;;;;;;26.13;33.28;98999.00;4716023;30;20298;-84
2022/07/16 11:29:38;;;;;;;;;;;;;;;26.78;31.58;99001.75;4715708;30;19930;-84
2022/07/16 11:32:05;;;;;;;;;;;;;;;26.26;31.30;99002.59;4714190;30;20391;-84
2022/07/16 11:34:33;;;;;;;;;;;;;;;25.92;31.00;98991.66;4716126;30;19969;-83
2022/07/16 11:37:00;;;;;;;;;;;;;;;25.60;31.09;99004.44;4715229;30;19962;-83
2022/07/16 11:39:27;;;;;;;;;;;;;;;24.86;32.65;98990.47;4716548;30;19935;-84
2022/07/16 11:41:56;;;;;;;;;;;;;;;24.26;34.49;98994.53;4716700;30;20453;-83
2022/07/16 11:44:24;;;;;;;;;;;;;;;24.26;33.93;99001.97;4715742;30;19988;-83
2022/07/16 11:47:01;;;;;;;;;;;;;;;23.08;35.26;98998.78;4714500;30;19930;-84
2022/07/16 11:49:32;;;;;;;;;;;;;;;23.14;36.12;98999.41;4715851;30;19953;-83
2022/07/16 11:52:02;;;;;;;;;;;;;;;23.61;35.66;98988.41;4716512;30;19934;-84
2022/07/16 11:54:30;;;;;;;;;;;;;;;24.51;34.02;98981.72;4716990;30;19935;-85
2022/07/16 11:56:57;;;;;;;;;;;;;;;25.51;32.99;98993.50;4715269;30;19934;-85
2022/07/16 11:59:25;;;;;;;;;;;;;;;26.91;31.35;98994.19;4717062;30;19934;-84
2022/07/16 12:02:06;;;;;;;;;;;;;;;27.06;29.96;98979.56;4716147;30;20350;-85
2022/07/16 12:04:52;;;;;;;;;;;;;;;25.52;32.53;98978.53;4716564;30;20004;-84
2022/07/16 12:07:25;;;;;;;;;;;;;;;26.57;30.54;98988.09;4716474;30;19962;-84
2022/07/16 12:10:03;;;;;;;;;;;;;;;27.43;29.01;98982.13;4715011;30;19931;-84
2022/07/16 12:12:31;;;;;;;;;;;;;;;28.21;28.08;98976.84;4716148;30;19937;-83
2022/07/16 12:14:58;;;;;;;;;;;;;;;28.76;27.36;98972.03;4715719;30;20032;-84
2022/07/16 12:17:43;;;;;;;;;;;;;;;29.08;27.25;98978.25;4714719;30;19957;-83
2022/07/16 12:20:23;;;;;;;;;;;;;;;29.56;26.86;98964.78;4715483;30;19930;-83
2022/07/16 12:22:59;;;;;;;;;;;;;;;30.43;26.81;98978.78;4713978;30;19931;-83
2022/07/16 12:25:30;;;;;;;;;;;;;;;29.84;26.78;98968.41;4715704;30;20022;-83
2022/07/16 12:28:05;;;;;;;;;;;;;;;29.93;27.27;98977.25;4684410;30;19937;-83
2022/07/16 12:30:35;;;;;;;;;;;;;;;30.62;26.29;98972.25;4715656;30;19980;-83
2022/07/16 12:33:03;;;;;;;;;;;;;;;30.96;26.33;98977.84;4714884;30;19931;-83
2022/07/16 12:35:51;;;;;;;;;;;;;;;30.52;26.39;98967.38;4713884;30;19930;-84
2022/07/16 12:38:38;;;;;;;;;;;;;;;31.17;26.39;98970.88;4715245;30;20384;-84
2022/07/16 12:41:07;;;;;;;;;;;;;;;31.22;25.14;98974.13;4715164;30;19953;-84
2022/07/16 12:43:34;;;;;;;;;;;;;;;30.53;26.60;98966.19;4715959;30;20021;-84
2022/07/16 12:46:01;;;;;;;;;;;;;;;30.77;26.16;98981.59;4718246;30;20045;-83
2022/07/16 12:48:28;;;;;;;;;;;;;;;31.22;25.55;98973.31;4718278;30;19996;-82
2022/07/16 12:50:55;;;;;;;;;;;;;;;31.14;25.74;98968.84;4718268;30;20346;-83
2022/07/16 12:53:45;;;;;;;;;;;;;;;32.46;24.04;98977.41;4680946;30;19932;-84
2022/07/16 12:58:58;;;;;;;;;;;;;;;31.31;23.76;98973.81;4652267;30;19931;-84
2022/07/16 13:01:25;;;;;;;;;;;;;;;31.64;22.59;98963.75;4666615;30;20069;-83
2022/07/16 13:03:52;;;;;;;;;;;;;;;30.93;23.65;98969.44;4681621;30;20399;-84
2022/07/16 13:06:19;;;;;;;;;;;;;;;31.81;23.17;98979.00;4681606;30;20422;-84
2022/07/16 13:08:46;;;;;;;;;;;;;;;31.84;23.12;98992.19;4680855;30;19954;-83